createdAt,value
2022-09-04T00:02:18.024Z,126.88
2022-09-04T00:27:24.575Z,123.00
2022-09-04T00:52:36.568Z,120.13
2022-09-04T01:17:43.601Z,121.30
2022-09-04T01:42:50.680Z,121.07
2022-09-04T02:07:59.761Z,119.55
2022-09-04T02:33:08.616Z,118.38
2022-09-04T02:58:18.044Z,120.20
2022-09-04T03:23:24.329Z,118.75
2022-09-04T03:48:38.427Z,121.00
2022-09-04T04:13:55.173Z,118.47
2022-09-04T04:39:15.456Z,118.35
2022-09-04T05:04:23.661Z,119.00
2022-09-04T05:29:35.686Z,120.47
2022-09-04T05:54:49.548Z,126.15
2022-09-04T06:20:02.216Z,127.75
2022-09-04T06:45:11.639Z,125.78
2022-09-04T07:10:17.677Z,127.72
2022-09-04T07:35:25.366Z,129.65
2022-09-04T08:00:30.667Z,127.85
2022-09-04T08:25:44.902Z,130.63
2022-09-04T08:51:06.986Z,129.27
2022-09-04T09:16:19.903Z,125.57
2022-09-04T09:41:53.637Z,126.43
2022-09-04T10:07:21.829Z,128.57
2022-09-04T10:32:36.546Z,128.43
2022-09-04T10:57:50.079Z,133.82
2022-09-04T11:23:11.950Z,128.43
2022-09-04T11:48:29.396Z,146.95
2022-09-04T12:13:52.696Z,133.00
2022-09-04T12:39:07.545Z,138.35
2022-09-04T13:04:15.843Z,132.93
2022-09-04T13:29:26.295Z,130.20
2022-09-04T13:54:35.078Z,132.63
2022-09-04T14:19:46.208Z,130.05
2022-09-04T14:45:13.221Z,134.68
2022-09-04T15:10:24.209Z,133.32
2022-09-04T15:35:33.515Z,130.65
2022-09-04T16:00:40.484Z,131.43
2022-09-04T16:25:47.589Z,140.17
2022-09-04T16:50:54.163Z,127.65
2022-09-04T17:16:00.246Z,128.25
2022-09-04T17:41:38.134Z,126.93
2022-09-04T18:06:40.449Z,126.50
2022-09-04T18:37:11.870Z,130.90
2022-09-04T18:57:24.496Z,127.00
2022-09-04T19:22:30.035Z,127.45
2022-09-04T19:47:40.768Z,140.77
2022-09-04T20:12:47.861Z,128.32
2022-09-04T20:37:58.050Z,127.28
2022-09-04T21:03:27.867Z,126.18
2022-09-04T21:28:42.626Z,123.72
2022-09-04T21:53:53.628Z,122.00
2022-09-04T22:19:09.708Z,121.75
2022-09-04T22:44:29.281Z,123.72
2022-09-04T23:13:44.522Z,123.88
2022-09-04T23:35:23.429Z,134.43
